Time;durP1;ratioP1;P1;durP2;ratioP2;P2;SDS_P1;SDS_P2;PMS_P1;PMS_P2;Temp;Humidity;BMP_temperature;BMP_pressure;BME280_temperature;BME280_humidity;BME280_pressure;Samples;Min_cycle;Max_cycle;Signal;HPM_P1;HPM_P2
2023/02/14 00:01:13;;;;;;;9.10;6.18;;;20.70;33.90;;;;;;5019795;28;20070;-67
2023/02/14 00:03:40;;;;;;;6.82;5.43;;;20.80;34.00;;;;;;5019545;28;20052;-67
2023/02/14 00:06:10;;;;;;;9.38;6.18;;;20.70;33.90;;;;;;5019540;28;20060;-66
2023/02/14 00:08:39;;;;;;;8.52;6.35;;;20.80;33.90;;;;;;5019697;28;20050;-67
2023/02/14 00:11:10;;;;;;;7.93;6.00;;;20.80;33.90;;;;;;5019634;28;20109;-66
2023/02/14 00:13:37;;;;;;;9.30;6.63;;;20.70;33.80;;;;;;5019525;28;20056;-66
2023/02/14 00:16:04;;;;;;;8.35;6.43;;;20.80;33.90;;;;;;5019231;28;20521;-67
2023/02/14 00:21:18;;;;;;;10.82;7.22;;;20.80;33.90;;;;;;5018996;28;20081;-67
2023/02/14 00:23:45;;;;;;;8.65;6.22;;;20.70;33.80;;;;;;5019460;28;20125;-66
2023/02/14 00:26:14;;;;;;;8.18;6.55;;;20.70;33.80;;;;;;5019347;28;20137;-66
2023/02/14 00:28:41;;;;;;;10.82;6.93;;;20.70;33.80;;;;;;5019228;28;20128;-67
2023/02/14 00:31:08;;;;;;;8.40;6.40;;;20.70;33.80;;;;;;5018958;28;20100;-62
2023/02/14 00:33:36;;;;;;;8.65;6.35;;;20.70;33.80;;;;;;5019097;28;20129;-67
2023/02/14 00:36:05;;;;;;;10.50;7.18;;;20.70;33.70;;;;;;4999823;28;20073;-67
2023/02/14 00:38:33;;;;;;;10.93;6.47;;;20.70;33.70;;;;;;5018705;28;20085;-66
2023/02/14 00:41:01;;;;;;;9.02;6.82;;;20.70;33.70;;;;;;5018497;28;20045;-67
2023/02/14 00:43:28;;;;;;;12.60;7.55;;;20.70;33.70;;;;;;5018759;28;20149;-66
2023/02/14 00:45:55;;;;;;;10.55;6.90;;;20.70;33.70;;;;;;5017950;28;20050;-67
2023/02/14 00:48:23;;;;;;;9.52;6.18;;;20.70;33.70;;;;;;5018916;28;20050;-67
2023/02/14 00:50:50;;;;;;;11.05;6.72;;;20.70;33.70;;;;;;5018787;28;20053;-66
2023/02/14 00:53:17;;;;;;;8.65;6.43;;;20.70;33.70;;;;;;5018750;28;20582;-67
2023/02/14 00:55:45;;;;;;;9.88;6.53;;;20.70;33.70;;;;;;5018495;28;20051;-67
2023/02/14 00:58:12;;;;;;;10.60;6.20;;;20.70;33.70;;;;;;5018743;28;20058;-67
2023/02/14 01:00:39;;;;;;;9.27;6.50;;;20.70;33.70;;;;;;4997569;28;20058;-67
2023/02/14 01:03:07;;;;;;;8.35;6.13;;;20.70;33.70;;;;;;5016975;28;20089;-66
2023/02/14 01:05:34;;;;;;;9.82;6.80;;;20.70;33.70;;;;;;5018463;28;20140;-66
2023/02/14 01:08:01;;;;;;;8.65;5.70;;;20.70;33.70;;;;;;5018308;28;20049;-67
2023/02/14 01:10:28;;;;;;;8.07;6.30;;;20.70;33.70;;;;;;5018069;28;20222;-67
2023/02/14 01:12:55;;;;;;;9.23;6.47;;;20.70;33.70;;;;;;5018051;28;20054;-66
2023/02/14 01:15:22;;;;;;;8.27;6.20;;;20.70;33.70;;;;;;5018199;28;20482;-66
2023/02/14 01:17:50;;;;;;;7.90;5.72;;;20.60;33.60;;;;;;5017835;28;20045;-67
2023/02/14 01:20:17;;;;;;;9.40;6.88;;;20.60;33.60;;;;;;5018077;28;20050;-66
2023/02/14 01:22:44;;;;;;;8.75;6.68;;;20.60;33.60;;;;;;5018140;28;20056;-67
2023/02/14 01:25:11;;;;;;;8.27;5.72;;;20.60;33.60;;;;;;5018055;28;20092;-67
2023/02/14 01:27:38;;;;;;;7.20;5.63;;;20.60;33.60;;;;;;5018124;28;20056;-67
2023/02/14 01:30:06;;;;;;;8.93;6.53;;;20.60;33.60;;;;;;5018247;28;20050;-67
2023/02/14 01:32:34;;;;;;;8.48;6.25;;;20.60;33.60;;;;;;5018104;28;20132;-67
2023/02/14 01:35:01;;;;;;;8.65;6.20;;;20.60;33.60;;;;;;5018074;28;20073;-67
2023/02/14 01:37:29;;;;;;;8.82;6.03;;;20.60;33.70;;;;;;5017747;28;20050;-67
2023/02/14 01:39:56;;;;;;;8.52;5.97;;;20.60;33.60;;;;;;5017377;28;20050;-67
2023/02/14 01:42:23;;;;;;;8.45;6.45;;;20.60;33.60;;;;;;5017865;28;20058;-66
2023/02/14 01:45:04;;;;;;;8.68;6.18;;;20.60;33.60;;;;;;5017903;28;20056;-67
2023/02/14 01:47:36;;;;;;;9.55;6.20;;;20.60;33.70;;;;;;5017563;28;20581;-66
2023/02/14 01:50:13;;;;;;;8.40;5.55;;;20.60;33.60;;;;;;5017585;28;20042;-67
2023/02/14 01:52:48;;;;;;;9.02;5.97;;;20.60;33.60;;;;;;5017191;28;20088;-66
2023/02/14 01:55:19;;;;;;;8.55;5.88;;;20.60;33.60;;;;;;5017831;28;20438;-67
2023/02/14 01:58:03;;;;;;;7.35;5.72;;;20.60;33.60;;;;;;5016404;28;20077;-67
2023/02/14 02:03:19;;;;;;;9.02;5.93;;;20.60;33.60;;;;;;5017426;28;20050;-67
2023/02/14 02:05:55;;;;;;;8.75;6.47;;;20.60;33.60;;;;;;5017438;28;20107;-67
2023/02/14 02:08:22;;;;;;;8.25;5.53;;;20.60;33.60;;;;;;5017228;28;20161;-63
2023/02/14 02:10:49;;;;;;;8.00;5.68;;;20.60;33.60;;;;;;5017127;28;20052;-66
2023/02/14 02:13:18;;;;;;;7.35;5.60;;;20.60;33.60;;;;;;5017145;28;20089;-62
2023/02/14 02:16:12;;;;;;;7.80;6.13;;;20.60;33.50;;;;;;5017221;28;20052;-66
2023/02/14 02:18:55;;;;;;;7.28;5.03;;;20.60;33.50;;;;;;4996683;28;20474;-66
2023/02/14 02:21:54;;;;;;;8.52;5.78;;;20.60;33.50;;;;;;5009584;28;20502;-67
2023/02/14 02:25:01;;;;;;;7.18;5.55;;;20.60;33.50;;;;;;5017418;28;20050;-67
2023/02/14 02:27:50;;;;;;;6.10;4.60;;;20.60;33.50;;;;;;5005288;28;20141;-67
2023/02/14 02:30:57;;;;;;;8.50;5.55;;;20.60;33.50;;;;;;5017319;28;20054;-62
2023/02/14 02:34:00;;;;;;;7.07;4.88;;;20.60;33.50;;;;;;5016951;28;20107;-67
2023/02/14 02:37:05;;;;;;;7.65;6.10;;;20.60;33.50;;;;;;5016962;28;20109;-66
2023/02/14 02:40:12;;;;;;;8.48;4.85;;;20.60;33.50;;;;;;5016840;28;20054;-67
2023/02/14 02:43:07;;;;;;;7.40;5.18;;;20.60;33.50;;;;;;5017048;28;20053;-66
2023/02/14 02:49:07;;;;;;;7.00;5.30;;;20.60;33.50;;;;;;5016993;28;20096;-67
2023/02/14 02:54:43;;;;;;;6.18;4.95;;;20.50;33.40;;;;;;5016663;28;20046;-67
2023/02/14 02:57:23;;;;;;;6.72;4.43;;;20.60;33.50;;;;;;5016548;28;20061;-66
2023/02/14 02:59:53;;;;;;;7.35;5.25;;;20.50;33.40;;;;;;5016960;28;20054;-67
2023/02/14 03:02:26;;;;;;;5.97;4.60;;;20.50;33.40;;;;;;5016678;28;20514;-67
2023/02/14 03:04:57;;;;;;;5.72;4.20;;;20.60;33.40;;;;;;5016585;28;20133;-67
2023/02/14 03:07:34;;;;;;;6.35;4.32;;;20.50;33.40;;;;;;5016723;28;20054;-67
2023/02/14 03:10:25;;;;;;;5.70;4.82;;;20.50;33.40;;;;;;5019788;28;20050;-67
2023/02/14 03:13:29;;;;;;;8.20;5.07;;;20.50;33.40;;;;;;5020606;28;20050;-67
2023/02/14 03:16:25;;;;;;;5.65;4.47;;;20.50;33.40;;;;;;5020340;28;20053;-67
2023/02/14 03:22:06;;;;;;;5.53;4.68;;;20.50;33.40;;;;;;5020203;28;20465;-67
2023/02/14 03:25:05;;;;;;;4.70;4.20;;;20.50;33.40;;;;;;5005027;28;20053;-67
2023/02/14 03:27:44;;;;;;;5.68;4.57;;;20.50;33.40;;;;;;5004688;28;20048;-67
2023/02/14 03:30:26;;;;;;;6.97;4.80;;;20.50;33.40;;;;;;5020471;28;20068;-67
2023/02/14 03:33:11;;;;;;;5.60;4.43;;;20.50;33.40;;;;;;5020245;28;20132;-67
2023/02/14 03:35:56;;;;;;;5.20;4.20;;;20.50;33.40;;;;;;5020233;28;20121;-67
2023/02/14 03:38:30;;;;;;;5.35;4.40;;;20.50;33.40;;;;;;5020104;28;20052;-66
2023/02/14 03:41:02;;;;;;;6.47;4.82;;;20.50;33.50;;;;;;5019843;28;20050;-66
2023/02/14 03:43:35;;;;;;;4.85;4.13;;;20.50;33.40;;;;;;4999060;28;20096;-63
2023/02/14 03:46:37;;;;;;;4.65;4.22;;;20.50;33.40;;;;;;5017743;28;20053;-67
2023/02/14 03:49:10;;;;;;;5.30;4.30;;;20.50;33.40;;;;;;5016986;28;20507;-67
2023/02/14 03:51:40;;;;;;;6.90;4.55;;;20.50;33.40;;;;;;5019853;28;20129;-66
2023/02/14 03:54:09;;;;;;;5.07;4.07;;;20.50;33.40;;;;;;5019952;28;20479;-67
2023/02/14 03:56:50;;;;;;;5.93;4.30;;;20.50;33.40;;;;;;5019627;28;20053;-67
2023/02/14 03:59:22;;;;;;;5.93;4.40;;;20.50;33.40;;;;;;5019323;28;20050;-67
2023/02/14 04:02:08;;;;;;;5.28;4.35;;;20.50;33.40;;;;;;5019743;28;20081;-66
2023/02/14 04:04:40;;;;;;;4.30;3.88;;;20.50;33.40;;;;;;5019620;28;20056;-66
2023/02/14 04:07:10;;;;;;;4.25;3.85;;;20.50;33.50;;;;;;5019282;28;20137;-67
2023/02/14 04:09:37;;;;;;;5.15;3.85;;;20.50;33.40;;;;;;5019884;28;20101;-62
2023/02/14 04:12:04;;;;;;;5.25;4.22;;;20.50;33.40;;;;;;5019213;28;20085;-67
2023/02/14 04:14:32;;;;;;;5.07;4.20;;;20.50;33.40;;;;;;5019397;28;20137;-67
2023/02/14 04:19:46;;;;;;;4.50;3.90;;;20.50;33.40;;;;;;5018633;28;20077;-67
2023/02/14 04:22:13;;;;;;;4.85;3.80;;;20.50;33.40;;;;;;5019315;28;20056;-67
2023/02/14 04:24:40;;;;;;;4.50;3.90;;;20.50;33.40;;;;;;5019343;28;20129;-67
2023/02/14 04:27:10;;;;;;;6.03;4.57;;;20.50;33.30;;;;;;5019399;28;20054;-67
2023/02/14 04:29:39;;;;;;;;;;;20.50;33.30;;;;;;5019985;28;20110;-67
2023/02/14 04:32:07;;;;;;;4.38;3.80;;;20.50;33.30;;;;;;5016236;28;19936;-66
2023/02/14 04:34:36;;;;;;;4.72;3.53;;;20.50;33.30;;;;;;5018979;28;20505;-66
2023/02/14 04:37:03;;;;;;;4.25;3.85;;;20.50;33.30;;;;;;5018661;28;20060;-66
2023/02/14 04:39:30;;;;;;;4.68;3.80;;;20.50;33.30;;;;;;5019002;28;20158;-67
2023/02/14 04:41:58;;;;;;;4.18;3.70;;;20.50;33.30;;;;;;5018485;28;20485;-66
2023/02/14 04:44:25;;;;;;;3.72;3.40;;;20.50;33.30;;;;;;5019132;28;20053;-66
2023/02/14 04:46:53;;;;;;;4.82;3.67;;;20.50;33.30;;;;;;5018610;28;20056;-67
2023/02/14 04:49:20;;;;;;;4.13;3.40;;;20.50;33.30;;;;;;5019049;28;20076;-67
2023/02/14 04:51:47;;;;;;;5.35;3.58;;;20.50;33.30;;;;;;5018741;28;20136;-67
2023/02/14 04:54:14;;;;;;;4.75;3.67;;;20.50;33.30;;;;;;5018889;28;20132;-67
2023/02/14 04:56:42;;;;;;;3.78;3.38;;;20.50;33.30;;;;;;5018590;28;20128;-66
2023/02/14 04:59:09;;;;;;;4.47;3.60;;;20.50;33.30;;;;;;5018715;28;20449;-67
2023/02/14 05:01:36;;;;;;;3.95;3.30;;;20.50;33.30;;;;;;5018424;28;20132;-66
2023/02/14 05:04:03;;;;;;;3.75;3.22;;;20.50;33.30;;;;;;5018461;28;20050;-67
2023/02/14 05:06:31;;;;;;;3.63;3.08;;;20.50;33.30;;;;;;5018406;28;20142;-67
2023/02/14 05:08:59;;;;;;;4.88;3.53;;;20.50;33.30;;;;;;5018591;28;20046;-67
2023/02/14 05:11:28;;;;;;;4.13;3.17;;;20.50;33.30;;;;;;5018548;28;20161;-67
2023/02/14 05:13:55;;;;;;;4.25;3.33;;;20.50;33.30;;;;;;5018256;28;20129;-67
2023/02/14 05:16:22;;;;;;;3.20;2.72;;;20.50;33.30;;;;;;5018044;28;20549;-67
2023/02/14 05:18:49;;;;;;;4.28;3.30;;;20.50;33.30;;;;;;5018360;28;20399;-67
2023/02/14 05:21:17;;;;;;;3.67;3.05;;;20.50;33.30;;;;;;5018169;28;20056;-67
2023/02/14 05:23:44;;;;;;;3.47;3.13;;;20.50;33.30;;;;;;5018422;28;20099;-66
2023/02/14 05:26:11;;;;;;;3.45;3.15;;;20.50;33.30;;;;;;5018134;28;20053;-67
2023/02/14 05:28:39;;;;;;;4.00;3.05;;;20.50;33.30;;;;;;5018390;28;20486;-67
2023/02/14 05:31:07;;;;;;;3.30;3.00;;;20.50;33.30;;;;;;5017759;28;20097;-67
2023/02/14 05:33:35;;;;;;;3.90;3.22;;;20.50;33.30;;;;;;5017900;28;20084;-67
2023/02/14 05:36:03;;;;;;;4.30;3.40;;;20.40;33.20;;;;;;5018029;28;20056;-66
2023/02/14 05:38:32;;;;;;;4.57;3.47;;;20.40;33.20;;;;;;5017626;28;20046;-66
2023/02/14 05:40:59;;;;;;;4.22;3.67;;;20.40;33.00;;;;;;5017837;28;20060;-67
2023/02/14 05:43:29;;;;;;;4.40;3.72;;;20.40;33.00;;;;;;5017586;28;20112;-62
2023/02/14 05:45:56;;;;;;;3.88;3.40;;;20.40;33.00;;;;;;5018039;28;20054;-66
2023/02/14 05:48:24;;;;;;;4.45;3.67;;;20.30;33.00;;;;;;5017463;28;20050;-66
2023/02/14 05:50:51;;;;;;;4.32;3.90;;;20.40;33.10;;;;;;5017770;28;20129;-66
2023/02/14 05:53:18;;;;;;;5.70;4.03;;;20.30;33.60;;;;;;5017505;28;20051;-66
2023/02/14 05:55:46;;;;;;;4.15;3.25;;;20.30;33.10;;;;;;5017601;28;20050;-66
2023/02/14 05:58:13;;;;;;;3.92;3.53;;;20.30;33.10;;;;;;5017626;28;20078;-66
2023/02/14 06:00:40;;;;;;;3.25;2.92;;;20.30;33.10;;;;;;5017689;28;20073;-66
2023/02/14 06:03:08;;;;;;;4.13;3.40;;;20.40;33.20;;;;;;5017506;28;20395;-66
2023/02/14 06:05:35;;;;;;;4.22;3.35;;;20.30;33.10;;;;;;4996591;28;20053;-67
2023/02/14 06:08:02;;;;;;;3.78;3.28;;;20.40;33.20;;;;;;4997469;28;20092;-66
2023/02/14 06:10:29;;;;;;;3.70;3.40;;;20.40;33.10;;;;;;5011235;28;20134;-67
2023/02/14 06:12:56;;;;;;;3.65;3.13;;;20.40;33.10;;;;;;5012713;28;20464;-64
2023/02/14 06:15:24;;;;;;;5.88;3.67;;;20.40;33.10;;;;;;5000371;28;20052;-68
2023/02/14 06:17:55;;;;;;;3.10;2.80;;;20.50;33.10;;;;;;5013324;28;20037;-62
2023/02/14 06:24:00;;;;;;;3.88;3.47;;;20.60;33.20;;;;;;5008350;28;20145;-62
2023/02/14 06:26:28;;;;;;;3.97;3.45;;;20.60;33.20;;;;;;5016391;28;20124;-62
2023/02/14 06:29:33;;;;;;;4.10;3.38;;;20.70;33.20;;;;;;5012096;28;20124;-63
2023/02/14 06:32:04;;;;;;;5.68;3.50;;;20.70;33.10;;;;;;5007774;28;20100;-68
2023/02/14 06:38:33;;;;;;;7.25;3.92;;;20.90;33.90;;;;;;5010945;28;20572;-61
2023/02/14 06:41:06;;;;;;;5.75;3.78;;;20.90;33.80;;;;;;5005735;28;20050;-63
2023/02/14 06:43:33;;;;;;;5.45;4.00;;;21.00;33.50;;;;;;5030384;28;20180;-63
2023/02/14 06:46:32;;;;;;;5.13;3.60;;;21.10;33.60;;;;;;5036575;28;20073;-64
2023/02/14 06:56:56;;;;;;;8.20;4.13;;;21.20;33.50;;;;;;5027064;28;20032;-64
2023/02/14 06:59:23;;;;;;;5.30;3.72;;;21.30;33.50;;;;;;5041752;28;20561;-71
2023/02/14 07:01:50;;;;;;;4.63;3.90;;;21.30;33.50;;;;;;5029029;28;20077;-71
2023/02/14 07:04:17;;;;;;;5.82;3.85;;;21.40;33.60;;;;;;5015924;28;20049;-67
2023/02/14 07:06:53;;;;;;;5.53;4.15;;;21.40;33.70;;;;;;5016709;28;20148;-71
2023/02/14 07:09:21;;;;;;;6.35;4.40;;;21.50;33.80;;;;;;5019058;28;20049;-65
2023/02/14 07:15:29;;;;;;;;;;;21.60;33.90;;;;;;5021301;28;20384;-67
2023/02/14 07:17:57;;;;;;;7.70;5.55;;;21.60;33.70;;;;;;5013643;28;20320;-64
2023/02/14 07:20:25;;;;;;;9.15;6.40;;;21.70;33.60;;;;;;5013412;28;20042;-64
2023/02/14 07:23:26;;;;;;;10.65;5.60;;;21.70;33.60;;;;;;5008673;28;20046;-66
2023/02/14 07:25:54;;;;;;;8.88;5.75;;;21.70;33.70;;;;;;5014261;28;20046;-67
2023/02/14 07:28:21;;;;;;;10.82;6.57;;;21.80;33.70;;;;;;5013553;28;20049;-63
2023/02/14 07:34:42;;;;;;;9.90;6.00;;;21.90;33.60;;;;;;5009496;28;20092;-67
2023/02/14 07:37:18;;;;;;;6.97;5.07;;;22.00;33.40;;;;;;5005510;28;20052;-73
2023/02/14 07:40:35;;;;;;;7.47;5.60;;;22.00;33.30;;;;;;5020537;28;20056;-63
2023/02/14 07:43:02;;;;;;;8.15;5.00;;;22.10;32.90;;;;;;5027220;28;20128;-63
2023/02/14 07:45:29;;;;;;;9.35;5.07;;;22.10;32.50;;;;;;5023159;28;20046;-67
2023/02/14 07:51:37;;;;;;;8.98;5.03;;;22.20;32.50;;;;;;5013295;28;20558;-67
2023/02/14 07:54:04;;;;;;;8.82;5.10;;;22.20;32.50;;;;;;5006045;28;20054;-65
2023/02/14 07:56:31;;;;;;;8.30;4.85;;;22.20;32.40;;;;;;5033770;28;20049;-65
2023/02/14 07:58:59;;;;;;;6.40;5.10;;;22.30;32.30;;;;;;5021851;28;20052;-68
2023/02/14 08:01:26;;;;;;;9.65;5.55;;;22.30;32.20;;;;;;5009993;28;20957;-64
2023/02/14 08:07:47;;;;;;;8.45;5.30;;;22.40;32.60;;;;;;5008807;28;20559;-69
2023/02/14 08:10:14;;;;;;;6.93;4.75;;;22.50;32.70;;;;;;5006191;28;20049;-69
2023/02/14 08:22:12;;;;;;;10.65;5.65;;;22.60;32.80;;;;;;5013221;28;20066;-66
2023/02/14 08:25:04;;;;;;;9.80;5.75;;;22.70;32.80;;;;;;5010005;28;22193;-63
2023/02/14 08:27:35;;;;;;;8.98;5.40;;;22.70;32.70;;;;;;5010649;28;20137;-68
2023/02/14 08:30:39;;;;;;;8.45;5.53;;;22.70;32.60;;;;;;5011225;28;20405;-62
2023/02/14 08:36:34;;;;;;;9.73;5.18;;;22.80;32.50;;;;;;5019187;23;20048;-65
2023/02/14 08:39:03;;;;;;;7.57;5.18;;;22.90;32.70;;;;;;5012022;28;20050;-70
2023/02/14 08:41:34;;;;;;;8.90;5.22;;;22.90;32.50;;;;;;5013834;28;20065;-70
2023/02/14 08:44:02;;;;;;;8.50;4.90;;;23.00;32.60;;;;;;5009655;28;20399;-63
2023/02/14 08:50:20;;;;;;;15.95;5.60;;;23.00;32.90;;;;;;5002233;28;20085;-64
2023/02/14 08:52:47;;;;;;;7.13;4.63;;;23.10;32.90;;;;;;5019123;28;20493;-69
2023/02/14 08:59:04;;;;;;;5.53;4.20;;;23.10;32.90;;;;;;5034877;28;20099;-69
2023/02/14 09:01:31;;;;;;;6.38;4.38;;;23.10;32.80;;;;;;4999659;28;20069;-62
2023/02/14 09:03:58;;;;;;;8.35;4.88;;;23.10;32.70;;;;;;5016966;28;20137;-68
2023/02/14 09:10:23;;;;;;;6.05;4.68;;;23.20;32.60;;;;;;5023372;28;20093;-70
2023/02/14 09:13:26;;;;;;;6.93;4.57;;;23.30;32.40;;;;;;5015685;28;20053;-67
2023/02/14 09:15:53;;;;;;;6.93;5.03;;;23.30;32.50;;;;;;4996119;28;20152;-67
2023/02/14 09:26:35;;;;;;;6.85;4.88;;;23.40;32.70;;;;;;5016641;28;20045;-65
2023/02/14 09:29:02;;;;;;;6.60;4.32;;;23.50;32.60;;;;;;5016540;28;20478;-62
2023/02/14 09:31:30;;;;;;;6.22;4.25;;;23.50;32.50;;;;;;5016932;28;20092;-63
2023/02/14 09:34:53;;;;;;;5.72;3.97;;;23.50;32.40;;;;;;5012603;28;20504;-65
2023/02/14 09:37:49;;;;;;;8.95;4.72;;;23.50;32.40;;;;;;5023775;28;20044;-66
2023/02/14 09:40:19;;;;;;;5.18;4.47;;;23.60;32.20;;;;;;5030341;28;20084;-60
2023/02/14 09:45:28;;;;;;;5.18;4.45;;;23.70;32.40;;;;;;5297569;23;20050;-60
2023/02/14 09:48:40;;;;;;;6.28;4.78;;;23.70;32.30;;;;;;5002215;28;20064;-66
2023/02/14 09:51:20;;;;;;;6.70;4.40;;;23.70;32.30;;;;;;5034821;28;20041;-69
2023/02/14 10:06:37;;;;;;;6.90;4.25;;;23.90;31.80;;;;;;5016033;28;20407;-68
2023/02/14 10:09:22;;;;;;;5.07;4.28;;;23.90;31.80;;;;;;5015885;28;20101;-68
2023/02/14 10:11:50;;;;;;;5.07;3.80;;;24.00;31.80;;;;;;5010140;28;20489;-63
2023/02/14 10:15:18;;;;;;;4.80;3.92;;;24.00;31.80;;;;;;5006258;28;20054;-67
2023/02/14 10:18:17;;;;;;;4.50;3.92;;;24.00;31.60;;;;;;5065175;23;20504;-66
2023/02/14 10:21:44;;;;;;;4.63;3.90;;;24.00;31.60;;;;;;5026504;28;20726;-67
2023/02/14 10:25:35;;;;;;;5.53;4.20;;;24.10;31.50;;;;;;5015432;28;20053;-66
2023/02/14 10:32:01;;;;;;;4.47;4.00;;;24.10;31.30;;;;;;5035031;28;20075;-64
2023/02/14 10:34:49;;;;;;;7.80;3.95;;;24.20;31.30;;;;;;5035701;28;20137;-63
2023/02/14 10:37:56;;;;;;;9.63;4.15;;;24.20;31.20;;;;;;5035328;28;20137;-68
2023/02/14 10:40:59;;;;;;;9.63;4.47;;;24.30;31.30;;;;;;5020951;28;20057;-67
2023/02/14 10:43:51;;;;;;;6.68;4.82;;;24.30;31.40;;;;;;5020781;28;20132;-65
2023/02/14 10:46:33;;;;;;;6.57;3.85;;;24.30;31.40;;;;;;5036438;28;20045;-61
2023/02/14 10:49:27;;;;;;;4.90;3.65;;;24.30;31.30;;;;;;5034810;28;20549;-63
2023/02/14 10:52:14;;;;;;;4.93;3.83;;;24.30;31.20;;;;;;5035748;28;20076;-64
2023/02/14 10:54:44;;;;;;;7.30;4.55;;;24.40;31.20;;;;;;5036876;28;20073;-65
2023/02/14 10:57:28;;;;;;;4.78;3.42;;;24.40;31.00;;;;;;5025539;28;20050;-65
2023/02/14 11:00:00;;;;;;;5.75;3.80;;;24.40;30.90;;;;;;5015080;28;20552;-64
2023/02/14 11:02:41;;;;;;;6.05;4.05;;;24.50;30.80;;;;;;5027826;28;20049;-64
2023/02/14 11:05:24;;;;;;;5.32;3.58;;;24.50;30.80;;;;;;5027189;28;20053;-64
2023/02/14 11:07:52;;;;;;;4.15;3.28;;;24.50;30.70;;;;;;5027543;28;20049;-65
2023/02/14 11:10:24;;;;;;;7.57;4.47;;;24.50;30.60;;;;;;5023442;28;20132;-66
2023/02/14 11:12:51;;;;;;;4.72;4.20;;;24.50;30.50;;;;;;5021576;28;20042;-66
2023/02/14 11:15:37;;;;;;;5.55;4.03;;;24.50;30.50;;;;;;5026274;28;20125;-65
2023/02/14 11:18:21;;;;;;;6.95;4.35;;;24.50;30.50;;;;;;5025556;28;20464;-67
2023/02/14 11:21:23;;;;;;;4.85;4.03;;;24.50;30.50;;;;;;5022754;28;20065;-63
2023/02/14 11:23:50;;;;;;;5.30;4.38;;;24.60;30.40;;;;;;5027194;28;20057;-63
2023/02/14 11:26:33;;;;;;;6.82;4.25;;;24.60;30.40;;;;;;5023885;28;20481;-60
2023/02/14 11:29:09;;;;;;;6.70;5.15;;;24.60;30.40;;;;;;5024843;28;20080;-62
2023/02/14 11:31:38;;;;;;;9.63;4.40;;;24.60;30.10;;;;;;5027720;28;20072;-63
2023/02/14 11:34:32;;;;;;;4.97;4.20;;;24.50;30.00;;;;;;5023744;28;20049;-67
2023/02/14 11:36:59;;;;;;;5.68;4.18;;;24.60;30.50;;;;;;5026863;28;20128;-61
2023/02/14 11:39:35;;;;;;;6.22;4.63;;;24.50;30.80;;;;;;5023109;28;20057;-64
2023/02/14 11:42:04;;;;;;;6.78;4.05;;;24.50;30.90;;;;;;5025534;28;20061;-64
2023/02/14 11:44:35;;;;;;;7.20;4.40;;;24.50;30.70;;;;;;5027926;28;20049;-64
2023/02/14 11:47:23;;;;;;;7.68;3.60;;;24.50;30.70;;;;;;5024773;28;20073;-64
2023/02/14 11:49:57;;;;;;;6.32;4.30;;;24.50;30.80;;;;;;5028951;28;20080;-65
2023/02/14 11:52:28;;;;;;;5.43;3.83;;;24.50;30.90;;;;;;5024205;28;20485;-64
2023/02/14 11:54:57;;;;;;;5.10;4.35;;;24.50;30.80;;;;;;5025335;28;20063;-64
2023/02/14 11:57:38;;;;;;;5.18;4.10;;;24.50;30.80;;;;;;5022509;28;20087;-71
2023/02/14 12:00:17;;;;;;;5.80;4.93;;;24.50;30.80;;;;;;5021264;28;20074;-65
2023/02/14 12:02:48;;;;;;;9.00;4.07;;;24.50;30.90;;;;;;5026874;28;20172;-68
2023/02/14 12:05:30;;;;;;;5.53;4.15;;;24.50;30.90;;;;;;5028420;28;20132;-70
2023/02/14 12:08:01;;;;;;;4.88;4.07;;;24.60;31.10;;;;;;5026951;28;20049;-67
2023/02/14 12:10:29;;;;;;;;;;;24.60;31.10;;;;;;5028275;28;20081;-68
2023/02/14 12:13:23;;;;;;;7.20;3.92;;;24.60;31.20;;;;;;5024918;28;20347;-64
2023/02/14 12:15:53;;;;;;;6.00;4.22;;;24.60;31.10;;;;;;5024578;28;20143;-68
2023/02/14 12:18:39;;;;;;;4.55;4.10;;;24.60;31.20;;;;;;5024760;28;20124;-63
2023/02/14 12:21:43;;;;;;;4.07;3.60;;;24.70;31.20;;;;;;5023604;28;20140;-64
2023/02/14 12:24:17;;;;;;;5.28;4.13;;;24.60;31.00;;;;;;5021877;28;20087;-66
2023/02/14 12:27:23;;;;;;;6.75;3.80;;;24.70;30.80;;;;;;5027672;28;20471;-68
2023/02/14 12:30:06;;;;;;;4.60;4.10;;;24.70;30.60;;;;;;5024207;28;20513;-66
2023/02/14 12:32:34;;;;;;;6.18;4.10;;;24.70;30.50;;;;;;5022940;28;20053;-67
2023/02/14 12:35:15;;;;;;;7.80;4.43;;;24.70;30.40;;;;;;5025310;28;20059;-64
2023/02/14 12:38:10;;;;;;;5.38;4.10;;;24.70;30.40;;;;;;5024971;28;20067;-66
2023/02/14 12:41:09;;;;;;;4.43;3.35;;;24.70;30.30;;;;;;5025824;28;20133;-65
2023/02/14 12:43:54;;;;;;;4.43;4.03;;;24.70;30.30;;;;;;5026485;28;20056;-65
2023/02/14 12:47:01;;;;;;;5.40;4.00;;;24.70;30.30;;;;;;5023455;28;20098;-67
2023/02/14 12:49:53;;;;;;;7.60;4.32;;;24.80;30.40;;;;;;5014104;28;20081;-67
2023/02/14 12:52:45;;;;;;;6.65;4.43;;;24.70;30.40;;;;;;5023776;28;20066;-63
2023/02/14 12:55:44;;;;;;;8.43;4.28;;;24.70;30.50;;;;;;5028234;28;20159;-63
2023/02/14 12:58:36;;;;;;;6.95;4.72;;;24.70;30.40;;;;;;5026102;28;20485;-61
2023/02/14 13:01:30;;;;;;;4.95;4.38;;;24.70;30.50;;;;;;5034760;28;20064;-61
2023/02/14 13:04:43;;;;;;;4.80;4.22;;;24.70;30.60;;;;;;5019421;28;20057;-62
2023/02/14 13:07:39;;;;;;;5.88;4.80;;;24.70;30.60;;;;;;5026707;28;20049;-63
2023/02/14 13:10:39;;;;;;;6.95;4.35;;;24.70;30.50;;;;;;5019497;28;20497;-61
2023/02/14 13:13:20;;;;;;;6.15;4.45;;;24.70;30.50;;;;;;5023296;28;20072;-61
2023/02/14 13:16:07;;;;;;;5.22;4.40;;;24.60;30.50;;;;;;5023281;28;20049;-61
2023/02/14 13:19:04;;;;;;;7.30;4.30;;;24.60;30.50;;;;;;5023702;28;20049;-62
2023/02/14 13:21:36;;;;;;;6.57;4.50;;;24.60;30.50;;;;;;5024741;28;20061;-65
2023/02/14 13:24:17;;;;;;;6.10;4.30;;;24.60;30.40;;;;;;5022632;28;20045;-62
2023/02/14 13:26:52;;;;;;;5.30;4.35;;;24.60;30.40;;;;;;5025766;28;20087;-67
2023/02/14 13:29:26;;;;;;;5.97;3.85;;;24.60;30.50;;;;;;5027004;28;20072;-67
2023/02/14 13:32:00;;;;;;;6.13;4.15;;;24.60;30.50;;;;;;5023941;28;20049;-65
2023/02/14 13:34:38;;;;;;;7.65;4.20;;;24.60;30.50;;;;;;5023316;28;20579;-63
2023/02/14 13:37:09;;;;;;;6.45;4.60;;;24.60;30.50;;;;;;5026467;28;20071;-64
2023/02/14 13:40:01;;;;;;;5.85;4.63;;;24.60;30.50;;;;;;5023067;28;20157;-64
2023/02/14 13:42:50;;;;;;;6.93;4.70;;;24.70;30.50;;;;;;5025659;28;20038;-66
2023/02/14 13:45:49;;;;;;;5.28;4.60;;;24.60;30.50;;;;;;5023515;28;20149;-66
2023/02/14 13:48:25;;;;;;;7.53;4.38;;;24.60;30.50;;;;;;5025578;28;20045;-68
2023/02/14 13:51:03;;;;;;;6.10;4.70;;;24.60;30.50;;;;;;5024050;28;20081;-65
2023/02/14 13:53:47;;;;;;;4.15;3.72;;;24.70;30.50;;;;;;5022202;28;20128;-65
2023/02/14 13:56:34;;;;;;;5.85;4.43;;;24.60;30.50;;;;;;5025237;28;20068;-65
2023/02/14 13:59:04;;;;;;;5.85;4.60;;;24.60;30.60;;;;;;5019465;28;20558;-69
2023/02/14 14:01:41;;;;;;;7.78;4.40;;;24.60;30.60;;;;;;5021678;28;20053;-68
2023/02/14 14:04:32;;;;;;;4.72;4.20;;;24.60;30.70;;;;;;5022595;28;20149;-68
2023/02/14 14:07:21;;;;;;;4.70;4.07;;;24.60;30.70;;;;;;5021901;28;20147;-68
2023/02/14 14:09:53;;;;;;;5.65;4.68;;;24.60;30.70;;;;;;5024528;28;20051;-67
2023/02/14 14:12:36;;;;;;;5.07;4.38;;;24.50;30.60;;;;;;5025613;28;20065;-67
2023/02/14 14:15:14;;;;;;;6.20;4.93;;;24.50;30.70;;;;;;5020596;28;20335;-68
2023/02/14 14:17:49;;;;;;;5.05;4.22;;;24.50;30.70;;;;;;5020722;28;20489;-67
2023/02/14 14:20:51;;;;;;;4.82;4.28;;;24.50;30.70;;;;;;5019133;28;20501;-65
2023/02/14 14:23:32;;;;;;;5.88;4.28;;;24.50;30.80;;;;;;5021625;28;20049;-68
2023/02/14 14:26:00;;;;;;;6.43;4.20;;;24.50;30.90;;;;;;5022834;28;20057;-64
2023/02/14 14:28:31;;;;;;;8.07;5.05;;;24.50;30.90;;;;;;5018400;28;20049;-65
2023/02/14 14:30:58;;;;;;;5.28;4.43;;;24.40;31.30;;;;;;5017372;28;20115;-66
2023/02/14 14:33:31;;;;;;;4.60;4.10;;;24.50;31.60;;;;;;5018493;28;20408;-67
2023/02/14 14:36:05;;;;;;;5.05;4.13;;;24.40;31.50;;;;;;5022677;28;20139;-64
2023/02/14 14:38:46;;;;;;;5.60;4.22;;;24.40;31.30;;;;;;5024133;28;20139;-68
2023/02/14 14:41:13;;;;;;;6.20;3.92;;;24.40;31.20;;;;;;5023801;28;20132;-66
2023/02/14 14:43:43;;;;;;;4.68;3.70;;;24.40;31.40;;;;;;5021046;28;20097;-64
2023/02/14 14:46:13;;;;;;;5.78;4.57;;;24.40;31.50;;;;;;5024350;28;20056;-67
2023/02/14 14:48:44;;;;;;;4.45;3.65;;;24.40;31.50;;;;;;5024439;28;20045;-66
2023/02/14 14:51:32;;;;;;;10.00;4.57;;;24.40;31.60;;;;;;5025604;28;20076;-63
2023/02/14 14:54:14;;;;;;;5.88;3.97;;;24.30;31.70;;;;;;5023680;28;20061;-65
2023/02/14 14:56:50;;;;;;;5.50;3.83;;;24.30;31.70;;;;;;5021144;28;20052;-67
2023/02/14 14:59:29;;;;;;;5.93;4.70;;;24.30;31.80;;;;;;5025969;28;20049;-66
2023/02/14 15:01:57;;;;;;;5.97;4.68;;;24.30;31.90;;;;;;5022506;28;20188;-65
2023/02/14 15:04:34;;;;;;;4.60;3.95;;;24.30;32.00;;;;;;5026622;28;20046;-65
2023/02/14 15:07:32;;;;;;;5.70;4.18;;;24.30;32.00;;;;;;5030774;28;20431;-68
2023/02/14 15:09:59;;;;;;;5.80;4.22;;;24.30;32.10;;;;;;5028277;28;20136;-68
2023/02/14 15:15:17;;;;;;;7.10;4.10;;;24.30;32.10;;;;;;5027645;28;20075;-66
2023/02/14 15:17:45;;;;;;;5.80;4.70;;;24.30;32.20;;;;;;5030928;28;20056;-64
2023/02/14 15:20:20;;;;;;;4.70;4.00;;;24.20;32.20;;;;;;5026412;28;20129;-65